Bookmark and Share
Track history (hours):
 

Ohshima Kazumaru

Last reported at 2014-Apr-23 09:34 UTC. Time now 2014-Apr-23 09:45 UTC.
Position N 35°32' E 139°47'.

Length 69 m; draft 3.2 m.

Type: Cargo ship. MMSI: 431000925.

NotesDate/timePositionNaut miles runAvg speedWind from/ knotsBaromVisibWave heightAir tempDewpointWater temp
2014-Apr-23 09:34N 35°32' E 139°47'0 0.0
2014-Apr-23 08:34N 35°32' E 139°47'0 0.0
2014-Apr-23 07:33N 35°32' E 139°47'0 0.0
2014-Apr-23 06:34N 35°32' E 139°47'0 0.0
2014-Apr-23 05:34N 35°32' E 139°47'0 0.0
2014-Apr-23 04:34N 35°32' E 139°47'0 0.0
2014-Apr-23 03:34N 35°32' E 139°47'2 2.1
2014-Apr-23 02:30N 35°31' E 139°50'0 0.0
2014-Apr-23 01:33N 35°31' E 139°50'0 0.0
2014-Apr-23 00:33N 35°31' E 139°50'0 0.0
2014-Apr-22 23:33N 35°31' E 139°50'0 0.0
2014-Apr-22 22:24N 35°31' E 139°50'1 1.6
2014-Apr-22 21:34N 35°29' E 139°49'1211.8
2014-Apr-22 20:33N 35°18' E 139°44'1111.1
2014-Apr-22 19:33N 35°07' E 139°45'1211.8
2014-Apr-22 18:34N 34°59' E 139°34'  
2014-Apr-18 23:33N 34°37' E 134°58'1212.4
2014-Apr-18 22:33N 34°36' E 135°13'1211.5
2014-Apr-18 21:33N 34°35' E 135°27'0 0.3
2014-Apr-18 20:33N 34°35' E 135°28'0 0.0
2014-Apr-18 19:33N 34°35' E 135°28'0 0.0
2014-Apr-18 18:33N 34°35' E 135°28'0 0.0
2014-Apr-18 17:33N 34°35' E 135°28'0 0.0
2014-Apr-18 16:33N 34°35' E 135°28'0 0.0
2014-Apr-18 15:33N 34°35' E 135°28'0 0.0
2014-Apr-18 14:33N 34°35' E 135°28'0 0.0
2014-Apr-18 13:33N 34°35' E 135°28'0 0.0
2014-Apr-18 12:33N 34°35' E 135°28'0 0.0
2014-Apr-18 11:33N 34°35' E 135°28'0 0.0
2014-Apr-18 10:33N 34°35' E 135°28'0 0.0
2014-Apr-18 09:33N 34°35' E 135°28'0 0.0
2014-Apr-18 08:33N 34°35' E 135°28'0 0.0
2014-Apr-18 07:33N 34°35' E 135°28'0 0.0
2014-Apr-18 06:33N 34°35' E 135°28'0 0.0
2014-Apr-18 05:33N 34°35' E 135°28'0 0.0
2014-Apr-18 04:33N 34°35' E 135°28'0 0.0
2014-Apr-18 03:33N 34°35' E 135°28'0 0.0
2014-Apr-18 02:33N 34°35' E 135°28'0 0.0
2014-Apr-18 01:33N 34°35' E 135°28'0 0.0
2014-Apr-18 00:33N 34°35' E 135°28'0 0.0
2014-Apr-17 23:33N 34°35' E 135°28'0 0.0
2014-Apr-17 22:33N 34°35' E 135°28'1 0.7
2014-Apr-17 21:33N 34°35' E 135°27'1 0.5
2014-Apr-17 20:24N 34°34' E 135°27'0 0.1
2014-Apr-17 19:31N 34°34' E 135°27'0 0.0
2014-Apr-17 18:33N 34°34' E 135°27'0 0.0
2014-Apr-17 17:31N 34°34' E 135°27'0 0.0
2014-Apr-17 16:32N 34°34' E 135°27'5 5.4
2014-Apr-17 15:32N 34°36' E 135°21'1212.3
2014-Apr-17 14:33N 34°35' E 135°06'10 9.8
2014-Apr-17 13:32N 34°35' E 134°54'  

Dump ship's entire track history

sailing weather and tide predictions

Ohshima Kazumaru — JD2908 — position and weather